地図

経路データ

SID SEASON NUMBER BASIN SUBBASIN NAME ISO_TIME NATURE LAT LON WMO_WIND WMO_PRES WMO_AGENCY TRACK_TYPE DIST2LAND LANDFALL IFLAG USA_AGENCY USA_ATCF_ID USA_LAT USA_LON USA_RECORD USA_STATUS USA_WIND USA_PRES USA_SSHS USA_R34_NE USA_R34_SE USA_R34_SW USA_R34_NW USA_R50_NE USA_R50_SE USA_R50_SW USA_R50_NW USA_R64_NE USA_R64_SE USA_R64_SW USA_R64_NW USA_POCI USA_ROCI USA_RMW USA_EYE TOKYO_LAT TOKYO_LON TOKYO_GRADE TOKYO_WIND TOKYO_PRES TOKYO_R50_DIR TOKYO_R50_LONG TOKYO_R50_SHORT TOKYO_R30_DIR TOKYO_R30_LONG TOKYO_R30_SHORT TOKYO_LAND CMA_LAT CMA_LON CMA_CAT CMA_WIND CMA_PRES HKO_LAT HKO_LON HKO_CAT HKO_WIND HKO_PRES NEWDELHI_LAT NEWDELHI_LON NEWDELHI_GRADE NEWDELHI_WIND NEWDELHI_PRES NEWDELHI_CI NEWDELHI_DP NEWDELHI_POCI REUNION_LAT REUNION_LON REUNION_TYPE REUNION_WIND REUNION_PRES REUNION_TNUM REUNION_CI REUNION_RMW REUNION_R34_NE REUNION_R34_SE REUNION_R34_SW REUNION_R34_NW REUNION_R50_NE REUNION_R50_SE REUNION_R50_SW REUNION_R50_NW REUNION_R64_NE REUNION_R64_SE REUNION_R64_SW REUNION_R64_NW BOM_LAT BOM_LON BOM_TYPE BOM_WIND BOM_PRES BOM_TNUM BOM_CI BOM_RMW BOM_R34_NE BOM_R34_SE BOM_R34_SW BOM_R34_NW BOM_R50_NE BOM_R50_SE BOM_R50_SW BOM_R50_NW BOM_R64_NE BOM_R64_SE BOM_R64_SW BOM_R64_NW BOM_ROCI BOM_POCI BOM_EYE BOM_POS_METHOD BOM_PRES_METHOD NADI_LAT NADI_LON NADI_CAT NADI_WIND NADI_PRES WELLINGTON_LAT WELLINGTON_LON WELLINGTON_WIND WELLINGTON_PRES DS824_LAT DS824_LON DS824_STAGE DS824_WIND DS824_PRES TD9636_LAT TD9636_LON TD9636_STAGE TD9636_WIND TD9636_PRES TD9635_LAT TD9635_LON TD9635_WIND TD9635_PRES TD9635_ROCI NEUMANN_LAT NEUMANN_LON NEUMANN_CLASS NEUMANN_WIND NEUMANN_PRES MLC_LAT MLC_LON MLC_CLASS MLC_WIND MLC_PRES USA_GUST BOM_GUST BOM_GUST_PER REUNION_GUST REUNION_GUST_PER USA_SEAHGT USA_SEARAD_NE USA_SEARAD_SE USA_SEARAD_SW USA_SEARAD_NW STORM_SPEED STORM_DIR
1954244N21291 1954 52 NA NA DOLLY 1954-08-31 12:00:00 TS 20.5000 -68.6000 35 hurdat_atl main 152 152 O_____________ hurdat_atl AL071954 20.5000 -68.6000 TS 35 0 19 334
1954244N21291 1954 52 NA NA DOLLY 1954-08-31 15:00:00 TS 21.3429 -69.0439 main 216 216 P_____________ AL071954 21.3429 -69.0439 TS 37 0 20 337
1954244N21291 1954 52 NA NA DOLLY 1954-08-31 18:00:00 TS 22.3000 -69.4000 40 hurdat_atl main 306 306 O_____________ hurdat_atl AL071954 22.3000 -69.4000 TS 40 0 22 346
1954244N21291 1954 52 NA NA DOLLY 1954-08-31 21:00:00 TS 23.4349 -69.6030 main 415 415 P_____________ AL071954 23.4349 -69.6030 TS 45 0 23 353
1954244N21291 1954 52 NA NA DOLLY 1954-09-01 00:00:00 TS 24.6000 -69.7000 50 hurdat_atl main 508 508 O_____________ hurdat_atl AL071954 24.6000 -69.7000 TS 50 0 22 356
1954244N21291 1954 52 NA NA DOLLY 1954-09-01 03:00:00 TS 25.6074 -69.7728 main 590 590 P_____________ AL071954 25.6074 -69.7728 TS 55 0 20 358
1954244N21291 1954 52 NA NA DOLLY 1954-09-01 06:00:00 TS 26.6000 -69.8000 60 hurdat_atl main 685 685 O_____________ hurdat_atl AL071954 26.6000 -69.8000 TS 60 0 20 359
1954244N21291 1954 52 NA NA DOLLY 1954-09-01 09:00:00 TS 27.6326 -69.8077 main 784 784 P_____________ AL071954 27.6326 -69.8077 TS 65 1 22 0
1954244N21291 1954 52 NA NA DOLLY 1954-09-01 12:00:00 TS 28.8000 -69.8000 70 hurdat_atl main 908 810 O_____________ hurdat_atl AL071954 28.8000 -69.8000 HU 70 1 26 359
1954244N21291 1954 52 NA NA DOLLY 1954-09-01 15:00:00 TS 30.1976 -69.8357 main 802 704 P_____________ AL071954 30.1976 -69.8357 HU 72 1 29 0
1954244N21291 1954 52 NA NA DOLLY 1954-09-01 18:00:00 TS 31.7000 -69.8000 75 hurdat_atl main 696 609 O_____________ hurdat_atl AL071954 31.7000 -69.8000 HU 75 1 30 2
1954244N21291 1954 52 NA NA DOLLY 1954-09-01 21:00:00 TS 33.1861 -69.6961 main 604 571 P_____________ AL071954 33.1861 -69.6961 HU 72 1 29 8
1954244N21291 1954 52 NA NA DOLLY 1954-09-02 00:00:00 TS 34.6000 -69.3000 70 994 hurdat_atl main 577 574 O_____________ hurdat_atl AL071954 34.6000 -69.3000 HU 70 994 1 28 20
1954244N21291 1954 52 NA NA DOLLY 1954-09-02 03:00:00 TS 35.8128 -68.5192 main 629 575 P_____________ AL071954 35.8128 -68.5192 HU 67 1 29 34
1954244N21291 1954 52 NA NA DOLLY 1954-09-02 06:00:00 TS 37.0000 -67.3000 65 hurdat_atl main 572 525 O_____________ hurdat_atl AL071954 37.0000 -67.3000 HU 65 1 34 42
1954244N21291 1954 52 NA NA DOLLY 1954-09-02 09:00:00 TS 38.3525 -65.6504 main 517 447 P_____________ AL071954 38.3525 -65.6504 HU 65 1 38 45
1954244N21291 1954 52 NA NA DOLLY 1954-09-02 12:00:00 TS 39.7000 -63.8000 65 hurdat_atl main 440 379 O_____________ hurdat_atl AL071954 39.7000 -63.8000 HU 65 1 37 46
1954244N21291 1954 52 NA NA DOLLY 1954-09-02 15:00:00 TS 40.9317 -62.1846 main 385 343 P_____________ AL071954 40.9317 -62.1846 HU 65 1 35 46
1954244N21291 1954 52 NA NA DOLLY 1954-09-02 18:00:00 ET 42.1000 -60.5000 65 hurdat_atl main 340 291 O_____________ hurdat_atl AL071954 42.1000 -60.5000 EX 65 -4 36 49
1954244N21291 1954 52 NA NA DOLLY 1954-09-02 21:00:00 ET 43.2652 -58.5385 main 295 291 P_____________ AL071954 43.2652 -58.5385 EX 62 -4 37 54
1954244N21291 1954 52 NA NA DOLLY 1954-09-03 00:00:00 ET 44.3000 -56.4000 60 hurdat_atl main 283 175 O_____________ hurdat_atl AL071954 44.3000 -56.4000 EX 60 -4 36 59
1954244N21291 1954 52 NA NA DOLLY 1954-09-03 03:00:00 ET 45.1370 -54.1742 main 172 115 P_____________ AL071954 45.1370 -54.1742 EX 57 -4 35 65
1954244N21291 1954 52 NA NA DOLLY 1954-09-03 06:00:00 ET 45.8000 -51.9000 55 hurdat_atl main 133 133 O_____________ hurdat_atl AL071954 45.8000 -51.9000 EX 55 -4 34 69
1954244N21291 1954 52 NA NA DOLLY 1954-09-03 09:00:00 ET 46.3479 -49.6434 main 263 263 P_____________ AL071954 46.3479 -49.6434 EX 52 -4 33 72
1954244N21291 1954 52 NA NA DOLLY 1954-09-03 12:00:00 ET 46.8000 -47.4000 50 hurdat_atl main 399 399 O_____________ hurdat_atl AL071954 46.8000 -47.4000 EX 50 -4 32 74
1954244N21291 1954 52 NA NA DOLLY 1954-09-03 15:00:00 ET 47.2176 -45.1531 main 555 555 P_____________ AL071954 47.2176 -45.1531 EX 47 -4 31 75
1954244N21291 1954 52 NA NA DOLLY 1954-09-03 18:00:00 ET 47.6000 -42.9000 45 hurdat_atl main 724 724 O_____________ hurdat_atl AL071954 47.6000 -42.9000 EX 45 -4 31 76
1954244N21291 1954 52 NA NA DOLLY 1954-09-03 21:00:00 ET 47.9898 -40.6234 main 894 894 P_____________ AL071954 47.9898 -40.6234 EX 45 -4 31 77
1954244N21291 1954 52 NA NA DOLLY 1954-09-04 00:00:00 ET 48.3000 -38.3000 45 hurdat_atl main 1063 1063 O_____________ hurdat_atl AL071954 48.3000 -38.3000 EX 45 -4 31 82
1954244N21291 1954 52 NA NA DOLLY 1954-09-04 03:00:00 ET 48.4473 -35.9259 main 1239 1239 P_____________ AL071954 48.4473 -35.9259 EX 45 -4 32 86
1954244N21291 1954 52 NA NA DOLLY 1954-09-04 06:00:00 ET 48.5000 -33.5000 45 hurdat_atl main 1415 1415 O_____________ hurdat_atl AL071954 48.5000 -33.5000 EX 45 -4 32 89
1954244N21291 1954 52 NA NA DOLLY 1954-09-04 09:00:00 ET 48.5105 -31.0127 main 1497 1336 P_____________ AL071954 48.5105 -31.0127 EX 45 -4 33 90
1954244N21291 1954 52 NA NA DOLLY 1954-09-04 12:00:00 ET 48.5000 -28.5000 45 hurdat_atl main 1329 1169 O_____________ hurdat_atl AL071954 48.5000 -28.5000 EX 45 -4 33 90
1954244N21291 1954 52 NA NA DOLLY 1954-09-04 15:00:00 ET 48.5053 -25.9968 main 1162 1003 P_____________ AL071954 48.5053 -25.9968 EX 42 -4 33 90
1954244N21291 1954 52 NA NA DOLLY 1954-09-04 18:00:00 ET 48.5000 -23.5000 40 hurdat_atl main 996 O_____________ hurdat_atl AL071954 48.5000 -23.5000 EX 40 -4 33 90

IBTrACS Databaseについて

本データベースは、米国NOAAが公開する1842年以降の世界の熱帯低気圧のベストトラックデータアーカイブInternational Best Track Archive for Climate Stewardship (IBTrACS)を、ウェブで閲覧しやすい形式に変換したものです。

最終更新日:2021-12-06